sensor_id;sensor_type;location;lat;lon;timestamp;P1;durP1;ratioP1;P2;durP2;ratioP2
70450;SDS011;58869;51.982;4.450;2023-08-06T00:45:51;7.93;;;7.93;;
70450;SDS011;58869;51.982;4.450;2023-08-06T00:48:23;8.50;;;8.50;;
70450;SDS011;58869;51.982;4.450;2023-08-06T01:00:34;8.59;;;8.59;;
70450;SDS011;58869;51.982;4.450;2023-08-06T01:15:56;9.11;;;9.11;;
70450;SDS011;58869;51.982;4.450;2023-08-06T01:25:33;9.35;;;9.35;;
70450;SDS011;58869;51.982;4.450;2023-08-06T01:38:01;9.50;;;9.50;;
70450;SDS011;58869;51.982;4.450;2023-08-06T01:43:36;9.52;;;9.52;;
70450;SDS011;58869;51.982;4.450;2023-08-06T01:46:07;9.45;;;9.45;;
70450;SDS011;58869;51.982;4.450;2023-08-06T02:09:32;7.99;;;7.99;;
70450;SDS011;58869;51.982;4.450;2023-08-06T02:11:57;7.78;;;7.78;;
70450;SDS011;58869;51.982;4.450;2023-08-06T02:14:24;6.86;;;6.86;;
70450;SDS011;58869;51.982;4.450;2023-08-06T02:16:50;6.64;;;6.64;;
70450;SDS011;58869;51.982;4.450;2023-08-06T02:21:50;5.71;;;5.71;;
70450;SDS011;58869;51.982;4.450;2023-08-06T02:24:16;5.27;;;5.27;;
70450;SDS011;58869;51.982;4.450;2023-08-06T02:29:17;4.11;;;4.11;;
70450;SDS011;58869;51.982;4.450;2023-08-06T02:31:43;3.51;;;3.51;;
70450;SDS011;58869;51.982;4.450;2023-08-06T02:34:28;2.86;;;2.86;;
70450;SDS011;58869;51.982;4.450;2023-08-06T02:37:02;2.71;;;2.71;;
70450;SDS011;58869;51.982;4.450;2023-08-06T02:39:28;2.61;;;2.61;;
70450;SDS011;58869;51.982;4.450;2023-08-06T02:44:52;2.83;;;2.83;;
70450;SDS011;58869;51.982;4.450;2023-08-06T02:47:29;2.73;;;2.73;;
70450;SDS011;58869;51.982;4.450;2023-08-06T02:49:58;2.83;;;2.83;;
70450;SDS011;58869;51.982;4.450;2023-08-06T02:52:27;2.12;;;2.12;;
70450;SDS011;58869;51.982;4.450;2023-08-06T02:54:52;1.75;;;1.75;;
70450;SDS011;58869;51.982;4.450;2023-08-06T02:57:18;1.64;;;1.64;;
70450;SDS011;58869;51.982;4.450;2023-08-06T02:59:43;1.73;;;1.73;;
70450;SDS011;58869;51.982;4.450;2023-08-06T03:02:09;1.78;;;1.78;;
70450;SDS011;58869;51.982;4.450;2023-08-06T03:04:34;1.61;;;1.61;;
70450;SDS011;58869;51.982;4.450;2023-08-06T03:07:00;1.13;;;1.12;;
70450;SDS011;58869;51.982;4.450;2023-08-06T03:09:25;1.17;;;1.17;;
70450;SDS011;58869;51.982;4.450;2023-08-06T03:11:50;1.12;;;1.11;;
70450;SDS011;58869;51.982;4.450;2023-08-06T03:14:16;1.00;;;0.97;;
70450;SDS011;58869;51.982;4.450;2023-08-06T03:16:41;1.20;;;1.17;;
70450;SDS011;58869;51.982;4.450;2023-08-06T03:19:08;2.14;;;2.12;;
70450;SDS011;58869;51.982;4.450;2023-08-06T03:21:33;2.40;;;2.40;;
70450;SDS011;58869;51.982;4.450;2023-08-06T03:23:59;2.64;;;2.64;;
70450;SDS011;58869;51.982;4.450;2023-08-06T03:26:24;3.20;;;3.20;;
70450;SDS011;58869;51.982;4.450;2023-08-06T03:28:50;3.65;;;3.65;;
70450;SDS011;58869;51.982;4.450;2023-08-06T03:31:15;3.72;;;3.72;;
70450;SDS011;58869;51.982;4.450;2023-08-06T03:33:41;4.07;;;4.07;;
70450;SDS011;58869;51.982;4.450;2023-08-06T03:36:06;4.22;;;4.22;;
70450;SDS011;58869;51.982;4.450;2023-08-06T03:38:34;4.05;;;4.05;;
70450;SDS011;58869;51.982;4.450;2023-08-06T03:40:59;4.51;;;4.51;;
70450;SDS011;58869;51.982;4.450;2023-08-06T03:43:25;5.06;;;5.06;;
70450;SDS011;58869;51.982;4.450;2023-08-06T03:45:50;5.67;;;5.67;;
70450;SDS011;58869;51.982;4.450;2023-08-06T03:48:27;6.23;;;6.23;;
70450;SDS011;58869;51.982;4.450;2023-08-06T03:50:56;6.09;;;6.09;;
70450;SDS011;58869;51.982;4.450;2023-08-06T03:53:22;6.02;;;6.02;;
70450;SDS011;58869;51.982;4.450;2023-08-06T03:55:55;6.46;;;6.46;;
70450;SDS011;58869;51.982;4.450;2023-08-06T03:58:25;6.40;;;6.40;;
70450;SDS011;58869;51.982;4.450;2023-08-06T04:00:57;4.65;;;4.65;;
70450;SDS011;58869;51.982;4.450;2023-08-06T04:03:32;4.93;;;4.93;;
70450;SDS011;58869;51.982;4.450;2023-08-06T04:05:58;5.35;;;5.35;;
70450;SDS011;58869;51.982;4.450;2023-08-06T04:08:35;5.13;;;5.13;;
70450;SDS011;58869;51.982;4.450;2023-08-06T04:11:00;5.03;;;5.03;;
70450;SDS011;58869;51.982;4.450;2023-08-06T04:13:26;4.73;;;4.73;;
70450;SDS011;58869;51.982;4.450;2023-08-06T04:16:03;4.51;;;4.51;;
70450;SDS011;58869;51.982;4.450;2023-08-06T04:18:29;4.28;;;4.28;;
70450;SDS011;58869;51.982;4.450;2023-08-06T04:20:55;4.29;;;4.29;;
70450;SDS011;58869;51.982;4.450;2023-08-06T04:23:22;4.15;;;4.15;;
70450;SDS011;58869;51.982;4.450;2023-08-06T04:26:23;4.09;;;4.09;;
70450;SDS011;58869;51.982;4.450;2023-08-06T04:29:10;4.27;;;4.27;;
70450;SDS011;58869;51.982;4.450;2023-08-06T04:32:03;3.99;;;3.99;;
70450;SDS011;58869;51.982;4.450;2023-08-06T04:34:30;3.90;;;3.90;;
70450;SDS011;58869;51.982;4.450;2023-08-06T04:36:56;3.80;;;3.79;;
70450;SDS011;58869;51.982;4.450;2023-08-06T04:39:26;3.82;;;3.82;;
70450;SDS011;58869;51.982;4.450;2023-08-06T04:41:52;4.08;;;4.08;;
70450;SDS011;58869;51.982;4.450;2023-08-06T04:44:17;4.11;;;4.11;;
70450;SDS011;58869;51.982;4.450;2023-08-06T04:46:44;4.25;;;4.25;;
70450;SDS011;58869;51.982;4.450;2023-08-06T04:49:10;4.25;;;4.25;;
70450;SDS011;58869;51.982;4.450;2023-08-06T04:51:35;4.33;;;4.33;;
70450;SDS011;58869;51.982;4.450;2023-08-06T04:54:00;4.52;;;4.52;;
70450;SDS011;58869;51.982;4.450;2023-08-06T04:56:29;4.43;;;4.43;;
70450;SDS011;58869;51.982;4.450;2023-08-06T04:58:54;4.24;;;4.24;;
70450;SDS011;58869;51.982;4.450;2023-08-06T05:01:23;4.75;;;4.75;;
70450;SDS011;58869;51.982;4.450;2023-08-06T05:03:54;4.77;;;4.77;;
70450;SDS011;58869;51.982;4.450;2023-08-06T05:06:20;5.12;;;5.12;;
70450;SDS011;58869;51.982;4.450;2023-08-06T05:08:46;5.10;;;5.10;;
70450;SDS011;58869;51.982;4.450;2023-08-06T05:11:11;4.87;;;4.87;;
70450;SDS011;58869;51.982;4.450;2023-08-06T05:13:37;4.80;;;4.80;;
70450;SDS011;58869;51.982;4.450;2023-08-06T05:16:02;5.03;;;5.03;;
70450;SDS011;58869;51.982;4.450;2023-08-06T05:18:28;5.17;;;5.17;;
70450;SDS011;58869;51.982;4.450;2023-08-06T05:20:55;5.07;;;5.07;;
70450;SDS011;58869;51.982;4.450;2023-08-06T05:23:21;4.94;;;4.94;;
70450;SDS011;58869;51.982;4.450;2023-08-06T05:25:46;4.84;;;4.84;;
70450;SDS011;58869;51.982;4.450;2023-08-06T05:28:12;4.99;;;4.99;;
70450;SDS011;58869;51.982;4.450;2023-08-06T05:30:41;4.76;;;4.76;;
70450;SDS011;58869;51.982;4.450;2023-08-06T05:33:07;4.49;;;4.49;;
70450;SDS011;58869;51.982;4.450;2023-08-06T05:35:32;4.78;;;4.78;;
70450;SDS011;58869;51.982;4.450;2023-08-06T05:37:58;4.80;;;4.80;;
70450;SDS011;58869;51.982;4.450;2023-08-06T05:40:23;4.89;;;4.87;;
70450;SDS011;58869;51.982;4.450;2023-08-06T05:42:52;4.52;;;4.51;;
70450;SDS011;58869;51.982;4.450;2023-08-06T05:45:18;4.24;;;4.24;;
70450;SDS011;58869;51.982;4.450;2023-08-06T05:50:28;3.70;;;3.69;;
70450;SDS011;58869;51.982;4.450;2023-08-06T05:52:55;3.49;;;3.49;;
70450;SDS011;58869;51.982;4.450;2023-08-06T05:55:36;3.00;;;3.00;;
70450;SDS011;58869;51.982;4.450;2023-08-06T06:01:45;2.53;;;2.51;;
70450;SDS011;58869;51.982;4.450;2023-08-06T06:04:16;2.33;;;2.30;;
70450;SDS011;58869;51.982;4.450;2023-08-06T06:06:42;2.07;;;2.04;;
70450;SDS011;58869;51.982;4.450;2023-08-06T06:09:07;2.30;;;2.25;;
70450;SDS011;58869;51.982;4.450;2023-08-06T06:11:34;1.98;;;1.95;;
70450;SDS011;58869;51.982;4.450;2023-08-06T06:14:06;1.90;;;1.87;;
70450;SDS011;58869;51.982;4.450;2023-08-06T06:16:34;2.07;;;2.03;;
70450;SDS011;58869;51.982;4.450;2023-08-06T06:38:11;2.14;;;2.08;;
70450;SDS011;58869;51.982;4.450;2023-08-06T06:40:56;1.95;;;1.91;;
70450;SDS011;58869;51.982;4.450;2023-08-06T06:43:27;1.99;;;1.94;;
70450;SDS011;58869;51.982;4.450;2023-08-06T06:46:02;2.18;;;2.11;;
70450;SDS011;58869;51.982;4.450;2023-08-06T06:48:37;2.27;;;2.18;;
70450;SDS011;58869;51.982;4.450;2023-08-06T06:54:39;2.29;;;2.21;;
70450;SDS011;58869;51.982;4.450;2023-08-06T06:57:08;2.29;;;2.25;;
70450;SDS011;58869;51.982;4.450;2023-08-06T06:59:34;2.20;;;2.16;;
70450;SDS011;58869;51.982;4.450;2023-08-06T07:02:03;2.38;;;2.34;;
70450;SDS011;58869;51.982;4.450;2023-08-06T07:04:49;2.77;;;2.74;;
70450;SDS011;58869;51.982;4.450;2023-08-06T07:07:31;2.78;;;2.75;;
70450;SDS011;58869;51.982;4.450;2023-08-06T07:10:03;2.75;;;2.72;;
70450;SDS011;58869;51.982;4.450;2023-08-06T07:12:31;3.04;;;3.00;;
70450;SDS011;58869;51.982;4.450;2023-08-06T07:14:57;2.77;;;2.74;;
70450;SDS011;58869;51.982;4.450;2023-08-06T07:17:25;2.81;;;2.80;;
70450;SDS011;58869;51.982;4.450;2023-08-06T07:19:50;2.87;;;2.87;;
70450;SDS011;58869;51.982;4.450;2023-08-06T07:22:16;2.83;;;2.83;;
70450;SDS011;58869;51.982;4.450;2023-08-06T07:24:41;2.94;;;2.93;;
70450;SDS011;58869;51.982;4.450;2023-08-06T07:27:27;2.66;;;2.64;;
70450;SDS011;58869;51.982;4.450;2023-08-06T07:29:53;2.88;;;2.86;;
70450;SDS011;58869;51.982;4.450;2023-08-06T07:32:38;2.74;;;2.72;;
70450;SDS011;58869;51.982;4.450;2023-08-06T07:35:04;3.14;;;3.11;;
70450;SDS011;58869;51.982;4.450;2023-08-06T07:37:36;3.59;;;3.53;;
70450;SDS011;58869;51.982;4.450;2023-08-06T07:40:05;3.12;;;3.07;;
70450;SDS011;58869;51.982;4.450;2023-08-06T07:42:35;3.60;;;3.57;;
70450;SDS011;58869;51.982;4.450;2023-08-06T07:45:08;3.47;;;3.46;;
70450;SDS011;58869;51.982;4.450;2023-08-06T07:47:34;4.01;;;3.99;;
70450;SDS011;58869;51.982;4.450;2023-08-06T07:50:00;3.55;;;3.54;;
70450;SDS011;58869;51.982;4.450;2023-08-06T07:52:25;4.28;;;4.23;;
70450;SDS011;58869;51.982;4.450;2023-08-06T07:54:51;3.55;;;3.51;;
70450;SDS011;58869;51.982;4.450;2023-08-06T07:57:27;3.64;;;3.60;;
70450;SDS011;58869;51.982;4.450;2023-08-06T07:59:52;3.66;;;3.61;;
70450;SDS011;58869;51.982;4.450;2023-08-06T08:02:27;4.19;;;4.14;;
70450;SDS011;58869;51.982;4.450;2023-08-06T08:04:55;3.10;;;3.08;;
70450;SDS011;58869;51.982;4.450;2023-08-06T08:07:20;2.72;;;2.71;;
70450;SDS011;58869;51.982;4.450;2023-08-06T08:09:46;2.77;;;2.76;;
70450;SDS011;58869;51.982;4.450;2023-08-06T08:12:13;2.76;;;2.74;;
70450;SDS011;58869;51.982;4.450;2023-08-06T08:14:47;2.71;;;2.71;;
70450;SDS011;58869;51.982;4.450;2023-08-06T08:17:25;2.68;;;2.68;;
70450;SDS011;58869;51.982;4.450;2023-08-06T08:19:51;2.79;;;2.78;;
70450;SDS011;58869;51.982;4.450;2023-08-06T08:22:28;2.71;;;2.70;;
70450;SDS011;58869;51.982;4.450;2023-08-06T08:27:46;2.60;;;2.59;;
70450;SDS011;58869;51.982;4.450;2023-08-06T08:30:18;2.78;;;2.77;;
70450;SDS011;58869;51.982;4.450;2023-08-06T08:32:46;2.78;;;2.76;;
70450;SDS011;58869;51.982;4.450;2023-08-06T08:35:15;2.53;;;2.51;;
70450;SDS011;58869;51.982;4.450;2023-08-06T08:37:41;2.55;;;2.53;;
70450;SDS011;58869;51.982;4.450;2023-08-06T08:40:20;2.69;;;2.67;;
70450;SDS011;58869;51.982;4.450;2023-08-06T08:42:52;2.94;;;2.93;;
70450;SDS011;58869;51.982;4.450;2023-08-06T08:45:17;2.75;;;2.74;;
70450;SDS011;58869;51.982;4.450;2023-08-06T08:48:00;2.87;;;2.87;;
70450;SDS011;58869;51.982;4.450;2023-08-06T08:50:26;2.69;;;2.69;;
70450;SDS011;58869;51.982;4.450;2023-08-06T08:52:51;2.40;;;2.40;;
70450;SDS011;58869;51.982;4.450;2023-08-06T08:55:17;2.45;;;2.45;;
70450;SDS011;58869;51.982;4.450;2023-08-06T08:57:43;2.48;;;2.48;;
70450;SDS011;58869;51.982;4.450;2023-08-06T09:00:09;2.36;;;2.36;;
70450;SDS011;58869;51.982;4.450;2023-08-06T09:02:34;2.21;;;2.21;;
70450;SDS011;58869;51.982;4.450;2023-08-06T09:05:03;2.24;;;2.24;;
70450;SDS011;58869;51.982;4.450;2023-08-06T09:07:35;1.82;;;1.82;;
70450;SDS011;58869;51.982;4.450;2023-08-06T09:10:05;1.90;;;1.89;;
70450;SDS011;58869;51.982;4.450;2023-08-06T09:12:32;1.93;;;1.93;;
70450;SDS011;58869;51.982;4.450;2023-08-06T09:14:57;2.12;;;2.12;;
70450;SDS011;58869;51.982;4.450;2023-08-06T09:17:23;1.94;;;1.94;;
70450;SDS011;58869;51.982;4.450;2023-08-06T09:19:49;2.05;;;2.05;;
70450;SDS011;58869;51.982;4.450;2023-08-06T09:22:14;2.04;;;2.04;;
70450;SDS011;58869;51.982;4.450;2023-08-06T09:24:43;1.60;;;1.60;;
70450;SDS011;58869;51.982;4.450;2023-08-06T09:27:12;1.77;;;1.76;;
70450;SDS011;58869;51.982;4.450;2023-08-06T09:29:42;1.80;;;1.79;;
70450;SDS011;58869;51.982;4.450;2023-08-06T09:32:10;1.97;;;1.97;;
70450;SDS011;58869;51.982;4.450;2023-08-06T09:34:38;1.91;;;1.90;;
70450;SDS011;58869;51.982;4.450;2023-08-06T09:37:04;2.00;;;1.99;;
70450;SDS011;58869;51.982;4.450;2023-08-06T09:39:30;2.28;;;2.28;;
70450;SDS011;58869;51.982;4.450;2023-08-06T09:41:57;2.02;;;2.01;;
70450;SDS011;58869;51.982;4.450;2023-08-06T09:44:24;1.65;;;1.65;;
70450;SDS011;58869;51.982;4.450;2023-08-06T09:46:51;1.94;;;1.94;;
70450;SDS011;58869;51.982;4.450;2023-08-06T09:49:20;1.96;;;1.95;;
70450;SDS011;58869;51.982;4.450;2023-08-06T09:51:50;1.67;;;1.66;;
70450;SDS011;58869;51.982;4.450;2023-08-06T09:54:17;1.63;;;1.63;;
70450;SDS011;58869;51.982;4.450;2023-08-06T09:56:45;1.58;;;1.57;;
70450;SDS011;58869;51.982;4.450;2023-08-06T09:59:11;1.80;;;1.80;;
70450;SDS011;58869;51.982;4.450;2023-08-06T10:01:37;1.64;;;1.64;;
70450;SDS011;58869;51.982;4.450;2023-08-06T10:04:03;1.68;;;1.67;;
70450;SDS011;58869;51.982;4.450;2023-08-06T10:06:42;1.67;;;1.66;;
70450;SDS011;58869;51.982;4.450;2023-08-06T10:09:08;1.41;;;1.41;;
70450;SDS011;58869;51.982;4.450;2023-08-06T10:11:44;1.60;;;1.60;;
70450;SDS011;58869;51.982;4.450;2023-08-06T10:14:16;1.69;;;1.67;;
70450;SDS011;58869;51.982;4.450;2023-08-06T10:16:46;1.49;;;1.47;;
70450;SDS011;58869;51.982;4.450;2023-08-06T10:19:14;1.64;;;1.63;;
70450;SDS011;58869;51.982;4.450;2023-08-06T10:21:41;1.62;;;1.61;;
70450;SDS011;58869;51.982;4.450;2023-08-06T10:27:12;1.71;;;1.70;;
70450;SDS011;58869;51.982;4.450;2023-08-06T10:29:37;1.78;;;1.76;;
70450;SDS011;58869;51.982;4.450;2023-08-06T10:32:03;1.72;;;1.71;;
70450;SDS011;58869;51.982;4.450;2023-08-06T10:37:20;1.97;;;1.97;;
70450;SDS011;58869;51.982;4.450;2023-08-06T10:39:53;1.96;;;1.95;;
70450;SDS011;58869;51.982;4.450;2023-08-06T10:42:19;1.56;;;1.56;;
70450;SDS011;58869;51.982;4.450;2023-08-06T10:47:53;1.79;;;1.78;;
70450;SDS011;58869;51.982;4.450;2023-08-06T10:50:21;1.65;;;1.65;;
70450;SDS011;58869;51.982;4.450;2023-08-06T10:52:49;1.46;;;1.46;;
70450;SDS011;58869;51.982;4.450;2023-08-06T10:55:28;1.57;;;1.57;;
70450;SDS011;58869;51.982;4.450;2023-08-06T10:57:54;1.76;;;1.75;;
70450;SDS011;58869;51.982;4.450;2023-08-06T11:00:21;1.53;;;1.53;;
70450;SDS011;58869;51.982;4.450;2023-08-06T11:02:49;1.62;;;1.62;;
70450;SDS011;58869;51.982;4.450;2023-08-06T11:05:15;1.66;;;1.66;;
70450;SDS011;58869;51.982;4.450;2023-08-06T11:07:42;1.54;;;1.53;;
70450;SDS011;58869;51.982;4.450;2023-08-06T11:10:09;1.39;;;1.39;;
70450;SDS011;58869;51.982;4.450;2023-08-06T11:12:37;1.63;;;1.63;;
70450;SDS011;58869;51.982;4.450;2023-08-06T11:15:03;1.56;;;1.56;;
70450;SDS011;58869;51.982;4.450;2023-08-06T11:17:32;1.61;;;1.61;;
70450;SDS011;58869;51.982;4.450;2023-08-06T11:19:59;1.72;;;1.72;;
70450;SDS011;58869;51.982;4.450;2023-08-06T11:22:26;1.74;;;1.74;;
70450;SDS011;58869;51.982;4.450;2023-08-06T11:24:52;1.60;;;1.60;;
70450;SDS011;58869;51.982;4.450;2023-08-06T11:27:18;1.54;;;1.53;;
70450;SDS011;58869;51.982;4.450;2023-08-06T11:29:45;1.72;;;1.71;;
70450;SDS011;58869;51.982;4.450;2023-08-06T11:32:13;1.62;;;1.60;;
70450;SDS011;58869;51.982;4.450;2023-08-06T11:34:39;1.80;;;1.77;;
70450;SDS011;58869;51.982;4.450;2023-08-06T11:37:06;1.32;;;1.30;;
70450;SDS011;58869;51.982;4.450;2023-08-06T11:39:52;1.44;;;1.43;;
70450;SDS011;58869;51.982;4.450;2023-08-06T11:42:30;1.55;;;1.54;;
70450;SDS011;58869;51.982;4.450;2023-08-06T11:44:56;1.59;;;1.58;;
70450;SDS011;58869;51.982;4.450;2023-08-06T11:47:22;1.84;;;1.82;;
70450;SDS011;58869;51.982;4.450;2023-08-06T11:49:59;2.07;;;2.05;;
70450;SDS011;58869;51.982;4.450;2023-08-06T11:52:45;2.17;;;2.14;;
70450;SDS011;58869;51.982;4.450;2023-08-06T11:55:10;2.17;;;2.15;;
70450;SDS011;58869;51.982;4.450;2023-08-06T11:57:38;2.09;;;2.07;;
70450;SDS011;58869;51.982;4.450;2023-08-06T12:00:16;1.79;;;1.76;;
70450;SDS011;58869;51.982;4.450;2023-08-06T12:02:45;1.49;;;1.47;;
70450;SDS011;58869;51.982;4.450;2023-08-06T12:07:50;1.28;;;1.26;;
70450;SDS011;58869;51.982;4.450;2023-08-06T12:10:23;1.02;;;1.00;;
70450;SDS011;58869;51.982;4.450;2023-08-06T12:16:06;1.22;;;1.19;;
70450;SDS011;58869;51.982;4.450;2023-08-06T12:18:46;1.47;;;1.43;;
70450;SDS011;58869;51.982;4.450;2023-08-06T12:21:13;1.44;;;1.41;;
70450;SDS011;58869;51.982;4.450;2023-08-06T12:23:39;1.38;;;1.35;;
70450;SDS011;58869;51.982;4.450;2023-08-06T12:26:04;1.31;;;1.26;;
70450;SDS011;58869;51.982;4.450;2023-08-06T12:28:39;1.39;;;1.33;;
70450;SDS011;58869;51.982;4.450;2023-08-06T12:31:07;1.58;;;1.49;;
70450;SDS011;58869;51.982;4.450;2023-08-06T12:34:12;1.34;;;1.26;;
70450;SDS011;58869;51.982;4.450;2023-08-06T12:36:53;1.45;;;1.35;;
70450;SDS011;58869;51.982;4.450;2023-08-06T12:39:19;1.14;;;1.06;;
70450;SDS011;58869;51.982;4.450;2023-08-06T12:41:48;1.12;;;1.03;;
70450;SDS011;58869;51.982;4.450;2023-08-06T12:44:14;1.53;;;1.42;;
70450;SDS011;58869;51.982;4.450;2023-08-06T12:46:39;1.50;;;1.34;;
70450;SDS011;58869;51.982;4.450;2023-08-06T12:49:05;1.43;;;1.26;;
70450;SDS011;58869;51.982;4.450;2023-08-06T12:51:31;1.38;;;1.20;;
70450;SDS011;58869;51.982;4.450;2023-08-06T12:53:59;1.18;;;1.04;;
70450;SDS011;58869;51.982;4.450;2023-08-06T12:56:24;1.19;;;1.06;;
70450;SDS011;58869;51.982;4.450;2023-08-06T12:58:50;1.26;;;1.12;;
70450;SDS011;58869;51.982;4.450;2023-08-06T13:01:15;1.11;;;0.97;;
70450;SDS011;58869;51.982;4.450;2023-08-06T13:03:41;0.93;;;0.83;;
70450;SDS011;58869;51.982;4.450;2023-08-06T13:06:09;1.10;;;0.96;;
70450;SDS011;58869;51.982;4.450;2023-08-06T13:08:36;1.08;;;0.96;;
70450;SDS011;58869;51.982;4.450;2023-08-06T13:11:05;1.12;;;1.01;;
70450;SDS011;58869;51.982;4.450;2023-08-06T13:13:39;0.98;;;0.90;;
70450;SDS011;58869;51.982;4.450;2023-08-06T13:16:06;0.79;;;0.74;;
70450;SDS011;58869;51.982;4.450;2023-08-06T13:18:32;0.85;;;0.80;;
70450;SDS011;58869;51.982;4.450;2023-08-06T13:24:32;1.11;;;1.03;;
70450;SDS011;58869;51.982;4.450;2023-08-06T13:29:51;1.52;;;1.40;;
70450;SDS011;58869;51.982;4.450;2023-08-06T13:32:17;2.16;;;1.85;;
70450;SDS011;58869;51.982;4.450;2023-08-06T13:34:42;2.47;;;1.98;;
70450;SDS011;58869;51.982;4.450;2023-08-06T13:37:08;2.75;;;2.08;;
70450;SDS011;58869;51.982;4.450;2023-08-06T13:39:33;3.08;;;2.23;;
70450;SDS011;58869;51.982;4.450;2023-08-06T13:42:14;3.79;;;2.63;;
70450;SDS011;58869;51.982;4.450;2023-08-06T13:47:53;4.54;;;2.96;;
70450;SDS011;58869;51.982;4.450;2023-08-06T13:53:15;3.70;;;2.38;;
70450;SDS011;58869;51.982;4.450;2023-08-06T13:55:47;3.07;;;2.00;;
70450;SDS011;58869;51.982;4.450;2023-08-06T13:58:12;2.45;;;1.60;;
70450;SDS011;58869;51.982;4.450;2023-08-06T14:00:41;3.51;;;2.32;;
70450;SDS011;58869;51.982;4.450;2023-08-06T14:03:13;3.26;;;2.20;;
70450;SDS011;58869;51.982;4.450;2023-08-06T14:05:41;2.83;;;1.91;;
70450;SDS011;58869;51.982;4.450;2023-08-06T14:11:16;2.95;;;1.96;;
70450;SDS011;58869;51.982;4.450;2023-08-06T14:17:53;3.39;;;2.21;;
70450;SDS011;58869;51.982;4.450;2023-08-06T14:23:56;2.50;;;1.62;;
70450;SDS011;58869;51.982;4.450;2023-08-06T14:26:23;2.71;;;1.78;;
70450;SDS011;58869;51.982;4.450;2023-08-06T14:41:21;4.69;;;3.26;;
70450;SDS011;58869;51.982;4.450;2023-08-06T14:43:47;3.17;;;2.24;;
70450;SDS011;58869;51.982;4.450;2023-08-06T14:49:45;3.54;;;2.45;;
70450;SDS011;58869;51.982;4.450;2023-08-06T14:55:25;3.97;;;2.74;;
70450;SDS011;58869;51.982;4.450;2023-08-06T15:00:57;3.82;;;2.61;;
70450;SDS011;58869;51.982;4.450;2023-08-06T15:03:25;3.86;;;2.58;;
70450;SDS011;58869;51.982;4.450;2023-08-06T15:05:53;3.78;;;2.48;;
70450;SDS011;58869;51.982;4.450;2023-08-06T15:27:02;4.58;;;3.02;;
70450;SDS011;58869;51.982;4.450;2023-08-06T15:32:18;5.13;;;3.43;;
70450;SDS011;58869;51.982;4.450;2023-08-06T15:34:43;4.85;;;3.27;;
70450;SDS011;58869;51.982;4.450;2023-08-06T15:37:09;4.07;;;2.78;;
70450;SDS011;58869;51.982;4.450;2023-08-06T15:39:44;3.77;;;2.56;;
70450;SDS011;58869;51.982;4.450;2023-08-06T15:42:22;4.07;;;2.82;;
70450;SDS011;58869;51.982;4.450;2023-08-06T15:47:53;3.80;;;2.61;;
70450;SDS011;58869;51.982;4.450;2023-08-06T15:53:22;4.51;;;3.05;;
70450;SDS011;58869;51.982;4.450;2023-08-06T16:01:48;5.25;;;3.59;;
70450;SDS011;58869;51.982;4.450;2023-08-06T16:07:23;4.92;;;3.48;;
70450;SDS011;58869;51.982;4.450;2023-08-06T16:15:46;4.26;;;2.94;;
70450;SDS011;58869;51.982;4.450;2023-08-06T16:18:11;4.26;;;2.98;;
70450;SDS011;58869;51.982;4.450;2023-08-06T16:20:41;4.42;;;3.13;;
70450;SDS011;58869;51.982;4.450;2023-08-06T16:23:08;4.07;;;2.82;;
70450;SDS011;58869;51.982;4.450;2023-08-06T16:25:37;4.12;;;2.90;;
70450;SDS011;58869;51.982;4.450;2023-08-06T16:31:26;4.35;;;3.08;;
70450;SDS011;58869;51.982;4.450;2023-08-06T16:55:27;3.33;;;2.42;;
70450;SDS011;58869;51.982;4.450;2023-08-06T17:10:43;3.96;;;2.71;;
70450;SDS011;58869;51.982;4.450;2023-08-06T17:16:09;3.74;;;2.55;;
70450;SDS011;58869;51.982;4.450;2023-08-06T17:18:47;4.28;;;2.88;;
70450;SDS011;58869;51.982;4.450;2023-08-06T17:24:20;3.90;;;2.68;;
70450;SDS011;58869;51.982;4.450;2023-08-06T17:26:45;3.98;;;2.71;;
70450;SDS011;58869;51.982;4.450;2023-08-06T17:29:17;4.09;;;2.77;;
70450;SDS011;58869;51.982;4.450;2023-08-06T17:31:45;4.60;;;3.12;;
70450;SDS011;58869;51.982;4.450;2023-08-06T17:34:11;4.79;;;3.21;;
70450;SDS011;58869;51.982;4.450;2023-08-06T17:36:36;4.93;;;3.28;;
70450;SDS011;58869;51.982;4.450;2023-08-06T17:39:02;5.15;;;3.43;;
70450;SDS011;58869;51.982;4.450;2023-08-06T17:41:27;4.75;;;3.18;;
70450;SDS011;58869;51.982;4.450;2023-08-06T17:43:52;4.16;;;2.79;;
70450;SDS011;58869;51.982;4.450;2023-08-06T17:46:19;4.55;;;3.09;;
70450;SDS011;58869;51.982;4.450;2023-08-06T17:48:44;4.89;;;3.32;;
70450;SDS011;58869;51.982;4.450;2023-08-06T17:51:13;4.17;;;2.85;;
70450;SDS011;58869;51.982;4.450;2023-08-06T17:53:48;3.72;;;2.59;;
70450;SDS011;58869;51.982;4.450;2023-08-06T17:56:17;3.74;;;2.57;;
70450;SDS011;58869;51.982;4.450;2023-08-06T17:58:48;4.15;;;2.79;;
70450;SDS011;58869;51.982;4.450;2023-08-06T18:01:17;4.04;;;2.68;;
70450;SDS011;58869;51.982;4.450;2023-08-06T18:03:45;3.62;;;2.40;;
70450;SDS011;58869;51.982;4.450;2023-08-06T18:06:13;3.33;;;2.23;;
70450;SDS011;58869;51.982;4.450;2023-08-06T18:08:42;3.39;;;2.26;;
70450;SDS011;58869;51.982;4.450;2023-08-06T18:11:14;3.94;;;2.61;;
70450;SDS011;58869;51.982;4.450;2023-08-06T18:13:43;4.27;;;2.83;;
70450;SDS011;58869;51.982;4.450;2023-08-06T18:16:08;4.55;;;3.03;;
70450;SDS011;58869;51.982;4.450;2023-08-06T18:18:41;4.66;;;3.15;;
70450;SDS011;58869;51.982;4.450;2023-08-06T18:21:07;4.76;;;3.24;;
70450;SDS011;58869;51.982;4.450;2023-08-06T18:23:34;5.07;;;3.61;;
70450;SDS011;58869;51.982;4.450;2023-08-06T18:26:00;4.37;;;3.13;;
70450;SDS011;58869;51.982;4.450;2023-08-06T18:28:25;4.49;;;3.22;;
70450;SDS011;58869;51.982;4.450;2023-08-06T18:30:51;4.11;;;2.94;;
70450;SDS011;58869;51.982;4.450;2023-08-06T18:33:17;5.10;;;3.58;;
70450;SDS011;58869;51.982;4.450;2023-08-06T18:35:43;5.72;;;3.93;;
70450;SDS011;58869;51.982;4.450;2023-08-06T18:38:09;6.23;;;4.25;;
70450;SDS011;58869;51.982;4.450;2023-08-06T18:40:34;6.03;;;4.08;;
70450;SDS011;58869;51.982;4.450;2023-08-06T18:43:00;5.81;;;4.01;;
70450;SDS011;58869;51.982;4.450;2023-08-06T18:45:34;5.29;;;3.76;;
70450;SDS011;58869;51.982;4.450;2023-08-06T18:48:07;5.70;;;4.07;;
70450;SDS011;58869;51.982;4.450;2023-08-06T18:50:36;5.68;;;3.98;;
70450;SDS011;58869;51.982;4.450;2023-08-06T18:53:08;5.74;;;4.01;;
70450;SDS011;58869;51.982;4.450;2023-08-06T18:55:49;5.41;;;3.83;;
70450;SDS011;58869;51.982;4.450;2023-08-06T18:58:36;5.66;;;4.02;;
70450;SDS011;58869;51.982;4.450;2023-08-06T19:01:01;6.02;;;4.23;;
70450;SDS011;58869;51.982;4.450;2023-08-06T19:03:28;6.68;;;4.69;;
70450;SDS011;58869;51.982;4.450;2023-08-06T19:05:57;7.18;;;4.90;;
70450;SDS011;58869;51.982;4.450;2023-08-06T19:08:29;7.05;;;4.89;;
70450;SDS011;58869;51.982;4.450;2023-08-06T19:10:55;5.75;;;3.97;;
70450;SDS011;58869;51.982;4.450;2023-08-06T19:13:21;5.19;;;3.65;;
70450;SDS011;58869;51.982;4.450;2023-08-06T19:15:53;5.38;;;3.77;;
70450;SDS011;58869;51.982;4.450;2023-08-06T19:18:21;5.86;;;4.12;;
70450;SDS011;58869;51.982;4.450;2023-08-06T19:23:46;6.16;;;4.71;;
70450;SDS011;58869;51.982;4.450;2023-08-06T19:26:16;6.39;;;4.68;;
70450;SDS011;58869;51.982;4.450;2023-08-06T19:28:46;6.38;;;4.64;;
70450;SDS011;58869;51.982;4.450;2023-08-06T19:31:12;5.78;;;4.22;;
70450;SDS011;58869;51.982;4.450;2023-08-06T19:33:53;5.62;;;4.23;;
70450;SDS011;58869;51.982;4.450;2023-08-06T19:36:18;5.50;;;4.01;;
70450;SDS011;58869;51.982;4.450;2023-08-06T19:38:55;6.15;;;4.43;;
70450;SDS011;58869;51.982;4.450;2023-08-06T19:41:21;5.78;;;4.20;;
70450;SDS011;58869;51.982;4.450;2023-08-06T19:43:49;5.15;;;3.78;;
70450;SDS011;58869;51.982;4.450;2023-08-06T19:46:20;5.43;;;3.97;;
70450;SDS011;58869;51.982;4.450;2023-08-06T19:48:46;5.65;;;4.06;;
70450;SDS011;58869;51.982;4.450;2023-08-06T19:51:57;6.35;;;4.54;;
70450;SDS011;58869;51.982;4.450;2023-08-06T19:54:23;7.16;;;5.15;;
70450;SDS011;58869;51.982;4.450;2023-08-06T19:56:48;6.55;;;4.72;;